Time;durP1;ratioP1;P1;durP2;ratioP2;P2;SDS_P1;SDS_P2;PMS_P1;PMS_P2;Temp;Humidity;BMP_temperature;BMP_pressure;BME280_temperature;BME280_humidity;BME280_pressure;Samples;Min_cycle;Max_cycle;Signal;HPM_P1;HPM_P2
2022/05/01 00:02:21;;;;;;;25.85;22.45;;;;;;;;;;5010614;28;20132;-65
2022/05/01 00:04:47;;;;;;;25.98;23.27;;;;;;;;;;5010540;28;20508;-64
2022/05/01 00:07:13;;;;;;;25.40;22.80;;;;;;;;;;5031749;28;20580;-65
2022/05/01 00:09:40;;;;;;;27.70;23.55;;;;;;;;;;5010567;28;20096;-66
2022/05/01 00:12:07;;;;;;;28.25;25.02;;;;;;;;;;5008853;28;20124;-66
2022/05/01 00:14:34;;;;;;;31.77;25.33;;;;;;;;;;5010465;28;20472;-63
2022/05/01 00:17:01;;;;;;;29.98;24.75;;;;;;;;;;5034545;28;20131;-63
2022/05/01 00:19:27;;;;;;;32.13;26.10;;;;;;;;;;5012272;28;20100;-63
2022/05/01 00:21:55;;;;;;;29.77;25.80;;;;;;;;;;5039992;28;20046;-63
2022/05/01 00:24:22;;;;;;;32.60;26.48;;;;;;;;;;5011742;28;20437;-63
2022/05/01 00:26:48;;;;;;;35.92;28.33;;;;;;;;;;5019464;28;20536;-63
2022/05/01 00:29:14;;;;;;;34.75;27.00;;;;;;;;;;5012155;28;20077;-65
2022/05/01 00:31:40;;;;;;;34.78;27.38;;;;;;;;;;5010571;28;20506;-64
2022/05/01 00:36:51;;;;;;;33.42;28.80;;;;;;;;;;5009808;28;20085;-63
2022/05/01 00:39:17;;;;;;;35.10;29.13;;;;;;;;;;5011878;28;20044;-62
2022/05/01 00:41:46;;;;;;;36.90;29.08;;;;;;;;;;5011229;28;20050;-63
2022/05/01 00:44:12;;;;;;;35.40;29.65;;;;;;;;;;5009457;28;20046;-65
2022/05/01 00:46:39;;;;;;;36.75;30.13;;;;;;;;;;5008699;28;20116;-66
2022/05/01 00:49:08;;;;;;;37.17;29.50;;;;;;;;;;4991746;28;20512;-66
2022/05/01 00:51:44;;;;;;;38.22;31.35;;;;;;;;;;5033164;28;20052;-66
2022/05/01 00:54:10;;;;;;;38.65;31.80;;;;;;;;;;5039132;28;20073;-64
2022/05/01 00:56:44;;;;;;;41.85;33.90;;;;;;;;;;5036823;28;20042;-63
2022/05/01 00:59:10;;;;;;;39.30;32.85;;;;;;;;;;5033984;28;20050;-65
2022/05/01 01:01:37;;;;;;;41.70;33.53;;;;;;;;;;4991581;28;20409;-64
2022/05/01 01:04:03;;;;;;;43.17;34.90;;;;;;;;;;5006979;28;20048;-65
2022/05/01 01:06:29;;;;;;;43.60;35.20;;;;;;;;;;5007499;28;20093;-65
2022/05/01 01:08:56;;;;;;;46.80;34.40;;;;;;;;;;5008295;28;20041;-65
2022/05/01 01:11:22;;;;;;;42.25;34.22;;;;;;;;;;5008235;28;20048;-66
2022/05/01 01:13:49;;;;;;;41.55;33.58;;;;;;;;;;5031668;28;20076;-65
2022/05/01 01:16:16;;;;;;;44.55;34.33;;;;;;;;;;4991536;28;20041;-65
2022/05/01 01:18:42;;;;;;;42.08;33.88;;;;;;;;;;5008947;28;20042;-67
2022/05/01 01:21:09;;;;;;;44.42;34.00;;;;;;;;;;5008264;28;20042;-66
2022/05/01 01:23:36;;;;;;;43.78;35.25;;;;;;;;;;5008044;28;20498;-65
2022/05/01 01:26:04;;;;;;;42.13;34.58;;;;;;;;;;5031347;28;20045;-65
2022/05/01 01:28:31;;;;;;;43.35;35.85;;;;;;;;;;4990320;28;20042;-65
2022/05/01 01:33:43;;;;;;;43.05;34.83;;;;;;;;;;5030587;28;20584;-65
2022/05/01 01:36:10;;;;;;;39.85;32.78;;;;;;;;;;5006584;28;20042;-66
2022/05/01 01:38:39;;;;;;;45.40;34.95;;;;;;;;;;5034060;28;20073;-64
2022/05/01 01:41:09;;;;;;;42.28;33.33;;;;;;;;;;5026112;28;20042;-64
2022/05/01 01:43:37;;;;;;;37.60;32.10;;;;;;;;;;4990695;28;20428;-66
2022/05/01 01:46:03;;;;;;;42.35;33.70;;;;;;;;;;4990336;28;20498;-66
2022/05/01 01:48:29;;;;;;;42.45;33.28;;;;;;;;;;5008785;28;20053;-64
2022/05/01 01:50:59;;;;;;;41.20;34.10;;;;;;;;;;5014793;28;20049;-63
2022/05/01 01:53:26;;;;;;;40.75;33.35;;;;;;;;;;5006368;28;20049;-65
2022/05/01 01:55:53;;;;;;;46.53;34.50;;;;;;;;;;5009156;28;20192;-64
2022/05/01 01:58:19;;;;;;;47.03;36.22;;;;;;;;;;5027889;28;20034;-64
2022/05/01 02:00:46;;;;;;;42.75;34.47;;;;;;;;;;5031372;28;20125;-64
2022/05/01 02:03:12;;;;;;;42.63;33.53;;;;;;;;;;5007201;28;20057;-65
2022/05/01 02:05:38;;;;;;;44.60;35.97;;;;;;;;;;5003175;28;20092;-64
2022/05/01 02:08:07;;;;;;;45.45;36.22;;;;;;;;;;5028947;28;20152;-63
2022/05/01 02:10:34;;;;;;;46.97;37.38;;;;;;;;;;4990123;28;20038;-63
2022/05/01 02:13:00;;;;;;;43.97;35.08;;;;;;;;;;5031797;28;20049;-64
2022/05/01 02:15:30;;;;;;;44.10;34.95;;;;;;;;;;5000488;28;20496;-64
2022/05/01 02:17:58;;;;;;;47.95;34.97;;;;;;;;;;5006270;28;20052;-64
2022/05/01 02:20:25;;;;;;;47.58;36.75;;;;;;;;;;5008486;28;20042;-64
2022/05/01 02:22:52;;;;;;;41.88;34.63;;;;;;;;;;5006564;28;20065;-63
2022/05/01 02:25:21;;;;;;;47.38;36.50;;;;;;;;;;5006706;28;20121;-64
2022/05/01 02:27:47;;;;;;;47.28;36.67;;;;;;;;;;5022359;28;20296;-64
2022/05/01 02:30:13;;;;;;;44.67;35.20;;;;;;;;;;5009228;28;20038;-62
2022/05/01 02:32:40;;;;;;;49.95;37.17;;;;;;;;;;5010406;28;20558;-62
2022/05/01 02:35:07;;;;;;;52.65;38.22;;;;;;;;;;5030517;28;20053;-64
2022/05/01 02:37:33;;;;;;;51.05;39.53;;;;;;;;;;4991840;28;20042;-62
2022/05/01 02:39:59;;;;;;;51.13;39.92;;;;;;;;;;5018066;28;20349;-64
2022/05/01 02:42:25;;;;;;;55.45;40.20;;;;;;;;;;5009717;28;20045;-63
2022/05/01 02:44:51;;;;;;;54.33;40.22;;;;;;;;;;5010046;28;20045;-63
2022/05/01 02:47:17;;;;;;;50.33;39.15;;;;;;;;;;4992566;28;20395;-63
2022/05/01 02:49:44;;;;;;;53.05;40.10;;;;;;;;;;5020662;28;20076;-63
2022/05/01 02:52:10;;;;;;;54.75;40.70;;;;;;;;;;5008771;28;20054;-63
2022/05/01 02:54:36;;;;;;;49.17;37.17;;;;;;;;;;5009154;28;20468;-62
2022/05/01 02:57:03;;;;;;;47.40;37.70;;;;;;;;;;5010123;28;20113;-63
2022/05/01 02:59:29;;;;;;;54.05;39.58;;;;;;;;;;5008635;28;20041;-62
2022/05/01 03:01:56;;;;;;;49.25;37.03;;;;;;;;;;5009955;28;20033;-63
2022/05/01 03:04:22;;;;;;;49.42;38.25;;;;;;;;;;5009653;28;20048;-64
2022/05/01 03:06:48;;;;;;;60.22;40.85;;;;;;;;;;5019041;28;20050;-62
2022/05/01 03:09:14;;;;;;;52.42;38.53;;;;;;;;;;5009198;28;20168;-64
2022/05/01 03:11:43;;;;;;;55.95;40.25;;;;;;;;;;5014154;28;20070;-63
2022/05/01 03:14:09;;;;;;;54.53;41.13;;;;;;;;;;5008147;28;20045;-63
2022/05/01 03:16:36;;;;;;;49.80;37.50;;;;;;;;;;5009864;28;20038;-64
2022/05/01 03:24:32;;;;;;;63.10;43.78;;;;;;;;;;5011404;28;20132;-62
2022/05/01 03:27:04;;;;;;;61.05;43.13;;;;;;;;;;5015353;28;20599;-65
2022/05/01 03:29:30;;;;;;;58.58;41.00;;;;;;;;;;5010850;28;20046;-64
2022/05/01 03:31:56;;;;;;;52.33;39.30;;;;;;;;;;5037251;28;20125;-65
2022/05/01 03:34:23;;;;;;;53.08;38.17;;;;;;;;;;5034281;28;20053;-64
2022/05/01 03:36:50;;;;;;;56.20;40.80;;;;;;;;;;5009460;28;20065;-65
2022/05/01 03:39:16;;;;;;;60.05;41.45;;;;;;;;;;5010428;28;20038;-64
2022/05/01 03:41:42;;;;;;;47.35;36.08;;;;;;;;;;5035466;28;20493;-65
2022/05/01 03:44:09;;;;;;;55.85;39.47;;;;;;;;;;5010303;28;20033;-64
2022/05/01 03:46:38;;;;;;;55.90;40.17;;;;;;;;;;5010156;28;20045;-65
2022/05/01 03:49:06;;;;;;;51.55;36.90;;;;;;;;;;5025212;28;20058;-63
2022/05/01 03:51:32;;;;;;;51.92;39.15;;;;;;;;;;5035914;28;20586;-64
2022/05/01 03:54:02;;;;;;;55.75;39.97;;;;;;;;;;5012015;28;20049;-64
2022/05/01 03:56:28;;;;;;;56.13;38.97;;;;;;;;;;5028377;28;20074;-64
2022/05/01 03:58:55;;;;;;;51.92;37.80;;;;;;;;;;5037573;28;20414;-63
2022/05/01 04:01:21;;;;;;;56.17;40.83;;;;;;;;;;5037186;28;20070;-64
2022/05/01 04:03:47;;;;;;;53.45;40.28;;;;;;;;;;5011559;28;20065;-63
2022/05/01 04:06:13;;;;;;;56.13;40.30;;;;;;;;;;5012667;28;20045;-63
2022/05/01 04:08:39;;;;;;;51.50;37.70;;;;;;;;;;5011315;28;20046;-66
2022/05/01 04:11:05;;;;;;;54.58;38.58;;;;;;;;;;4992587;28;20053;-65
2022/05/01 04:13:32;;;;;;;48.40;36.28;;;;;;;;;;5009220;28;20096;-65
2022/05/01 04:15:59;;;;;;;58.35;38.65;;;;;;;;;;5032499;28;20049;-65
2022/05/01 04:18:25;;;;;;;50.90;36.63;;;;;;;;;;5008672;28;20296;-64
2022/05/01 04:20:52;;;;;;;53.75;39.50;;;;;;;;;;5010438;28;20038;-65
2022/05/01 04:23:19;;;;;;;49.45;36.78;;;;;;;;;;5009896;28;20034;-65
2022/05/01 04:25:45;;;;;;;44.20;33.72;;;;;;;;;;5032612;28;20185;-65
2022/05/01 04:28:12;;;;;;;44.95;33.53;;;;;;;;;;4992361;28;20125;-64
2022/05/01 04:30:39;;;;;;;44.92;34.85;;;;;;;;;;4992098;28;20129;-64
2022/05/01 04:33:09;;;;;;;43.13;31.83;;;;;;;;;;5031397;28;20116;-64
2022/05/01 04:35:40;;;;;;;40.22;32.50;;;;;;;;;;5009484;28;20698;-65
2022/05/01 04:38:12;;;;;;;41.17;33.75;;;;;;;;;;4991629;28;20080;-64
2022/05/01 04:40:40;;;;;;;41.30;31.67;;;;;;;;;;5034285;28;20034;-64
2022/05/01 04:43:07;;;;;;;42.00;33.85;;;;;;;;;;5008263;28;20113;-64
2022/05/01 04:45:33;;;;;;;40.67;33.33;;;;;;;;;;5016882;28;20057;-64
2022/05/01 04:47:59;;;;;;;46.17;35.97;;;;;;;;;;5009339;28;20042;-63
2022/05/01 04:50:26;;;;;;;39.85;32.50;;;;;;;;;;5007708;28;20507;-64
2022/05/01 04:52:52;;;;;;;54.15;39.13;;;;;;;;;;5007374;28;20058;-64
2022/05/01 04:55:19;;;;;;;51.20;36.75;;;;;;;;;;5006921;28;20033;-65
2022/05/01 04:57:45;;;;;;;44.10;36.13;;;;;;;;;;5015881;28;20128;-64
2022/05/01 05:00:13;;;;;;;49.50;37.17;;;;;;;;;;5008329;28;20116;-65
2022/05/01 05:02:41;;;;;;;48.38;37.40;;;;;;;;;;5010985;28;20041;-63
2022/05/01 05:05:08;;;;;;;53.85;41.08;;;;;;;;;;5009686;28;20054;-63
2022/05/01 05:07:34;;;;;;;53.00;40.25;;;;;;;;;;5009932;28;20121;-64
2022/05/01 05:10:01;;;;;;;49.35;38.83;;;;;;;;;;5009989;28;20446;-62
2022/05/01 05:12:27;;;;;;;47.67;37.78;;;;;;;;;;5011058;28;20038;-65
2022/05/01 05:14:55;;;;;;;47.22;37.95;;;;;;;;;;5011143;28;20045;-63
2022/05/01 05:17:22;;;;;;;44.50;36.95;;;;;;;;;;5008960;28;20215;-63
2022/05/01 05:19:50;;;;;;;46.85;36.40;;;;;;;;;;5010729;28;20045;-64
2022/05/01 05:22:17;;;;;;;42.88;34.17;;;;;;;;;;5009263;28;20069;-63
2022/05/01 05:24:43;;;;;;;46.53;34.72;;;;;;;;;;5009910;28;20041;-63
2022/05/01 05:27:09;;;;;;;43.38;34.10;;;;;;;;;;5016863;28;20480;-63
2022/05/01 05:29:36;;;;;;;39.22;32.60;;;;;;;;;;4993113;28;20044;-64
2022/05/01 05:32:02;;;;;;;39.25;31.25;;;;;;;;;;5007171;28;20400;-64
2022/05/01 05:34:28;;;;;;;37.15;31.52;;;;;;;;;;5016679;28;20489;-64
2022/05/01 05:36:54;;;;;;;36.67;30.00;;;;;;;;;;5034542;28;20200;-64
2022/05/01 05:39:21;;;;;;;36.72;29.85;;;;;;;;;;5033921;28;20049;-63
2022/05/01 05:41:47;;;;;;;33.40;28.98;;;;;;;;;;4992137;28;20045;-63
2022/05/01 05:44:13;;;;;;;27.67;24.10;;;;;;;;;;5010782;28;20037;-64
2022/05/01 05:46:39;;;;;;;26.80;22.20;;;;;;;;;;5010790;28;20060;-63
2022/05/01 05:49:05;;;;;;;23.33;20.95;;;;;;;;;;5009735;28;20175;-63
2022/05/01 05:51:31;;;;;;;20.33;18.10;;;;;;;;;;5009220;28;20045;-64
2022/05/01 05:53:57;;;;;;;17.83;16.05;;;;;;;;;;5009542;28;20412;-63
2022/05/01 05:56:24;;;;;;;16.17;14.50;;;;;;;;;;5032283;28;20053;-62
2022/05/01 05:58:50;;;;;;;14.15;12.80;;;;;;;;;;5029527;28;20049;-64
2022/05/01 06:01:17;;;;;;;14.60;13.18;;;;;;;;;;5003938;28;20417;-65
2022/05/01 06:03:43;;;;;;;14.18;12.70;;;;;;;;;;5006591;28;20500;-64
2022/05/01 06:06:09;;;;;;;14.10;11.95;;;;;;;;;;5007885;28;20475;-66
2022/05/01 06:08:37;;;;;;;13.35;11.60;;;;;;;;;;5007903;28;20423;-67
2022/05/01 06:11:04;;;;;;;11.60;10.45;;;;;;;;;;5035307;28;20077;-66
2022/05/01 06:13:30;;;;;;;12.98;11.48;;;;;;;;;;5006736;28;20053;-64
2022/05/01 06:15:56;;;;;;;11.82;10.63;;;;;;;;;;5007645;28;20041;-65
2022/05/01 06:18:22;;;;;;;12.43;11.20;;;;;;;;;;5008250;28;21308;-65
2022/05/01 06:20:49;;;;;;;10.18;9.23;;;;;;;;;;5007610;28;20060;-66
2022/05/01 06:23:16;;;;;;;10.20;9.20;;;;;;;;;;5007910;28;20149;-65
2022/05/01 06:25:46;;;;;;;11.68;10.23;;;;;;;;;;5033929;28;20540;-65
2022/05/01 06:28:16;;;;;;;11.93;8.95;;;;;;;;;;5005523;28;20129;-65
2022/05/01 06:30:49;;;;;;;10.05;9.05;;;;;;;;;;5007854;28;20129;-64
2022/05/01 06:33:20;;;;;;;10.25;9.30;;;;;;;;;;5005561;28;20190;-65
2022/05/01 06:35:50;;;;;;;10.43;9.43;;;;;;;;;;5007658;28;20136;-65
2022/05/01 06:38:17;;;;;;;10.07;9.25;;;;;;;;;;5006963;28;20555;-66
2022/05/01 06:40:44;;;;;;;9.77;8.77;;;;;;;;;;5007518;28;20038;-65
2022/05/01 06:43:13;;;;;;;10.15;8.52;;;;;;;;;;5016114;28;20443;-65
2022/05/01 06:45:41;;;;;;;9.60;8.52;;;;;;;;;;5008048;28;20317;-65
2022/05/01 06:48:08;;;;;;;9.48;8.32;;;;;;;;;;5005154;28;20046;-64
2022/05/01 06:50:34;;;;;;;9.07;8.15;;;;;;;;;;5007518;28;20520;-65
2022/05/01 06:53:00;;;;;;;9.70;8.00;;;;;;;;;;5033633;28;20056;-65
2022/05/01 06:55:26;;;;;;;9.40;8.25;;;;;;;;;;4993723;28;20165;-65
2022/05/01 06:57:56;;;;;;;8.93;8.02;;;;;;;;;;5009735;28;20045;-65
2022/05/01 07:00:23;;;;;;;11.85;8.32;;;;;;;;;;5011015;28;20092;-67
2022/05/01 07:02:50;;;;;;;9.05;8.15;;;;;;;;;;5009433;28;20113;-66
2022/05/01 07:05:18;;;;;;;9.70;7.35;;;;;;;;;;5009936;28;20111;-65
2022/05/01 07:07:45;;;;;;;6.38;5.30;;;;;;;;;;5035029;28;20046;-66
2022/05/01 07:10:11;;;;;;;5.80;5.18;;;;;;;;;;5030701;28;20101;-65
2022/05/01 07:12:37;;;;;;;7.93;5.13;;;;;;;;;;5010688;28;20553;-67
2022/05/01 07:15:04;;;;;;;7.68;4.85;;;;;;;;;;5009118;28;20100;-65
2022/05/01 07:17:30;;;;;;;6.65;4.93;;;;;;;;;;5010932;28;20045;-67
2022/05/01 07:19:56;;;;;;;5.07;4.22;;;;;;;;;;5034675;28;20042;-66
2022/05/01 07:22:22;;;;;;;4.43;4.03;;;;;;;;;;5029951;28;20496;-64
2022/05/01 07:24:48;;;;;;;6.20;4.72;;;;;;;;;;5010731;28;20069;-67
2022/05/01 07:27:14;;;;;;;6.03;4.40;;;;;;;;;;5010243;28;20515;-65
2022/05/01 07:29:41;;;;;;;4.57;2.53;;;;;;;;;;5030065;28;20397;-68
2022/05/01 07:32:07;;;;;;;4.82;4.20;;;;;;;;;;5009126;28;20116;-67
2022/05/01 07:34:34;;;;;;;4.75;3.70;;;;;;;;;;5009318;28;20511;-66
2022/05/01 07:37:00;;;;;;;6.22;4.32;;;;;;;;;;5038457;28;20506;-63
2022/05/01 07:39:32;;;;;;;4.88;3.75;;;;;;;;;;5035175;28;20105;-64
2022/05/01 07:41:59;;;;;;;5.82;3.30;;;;;;;;;;4994976;28;20607;-65
2022/05/01 07:44:25;;;;;;;3.80;3.50;;;;;;;;;;5011760;28;20087;-62
2022/05/01 07:46:51;;;;;;;5.63;3.90;;;;;;;;;;5034703;28;20049;-63
2022/05/01 07:49:18;;;;;;;5.72;4.00;;;;;;;;;;5035493;28;20200;-64
2022/05/01 07:51:44;;;;;;;6.15;4.43;;;;;;;;;;5012376;28;20112;-63
2022/05/01 07:54:10;;;;;;;4.03;3.58;;;;;;;;;;5035191;28;20038;-64
2022/05/01 07:56:37;;;;;;;5.57;3.58;;;;;;;;;;4976732;28;20124;-63
2022/05/01 07:59:03;;;;;;;3.70;2.95;;;;;;;;;;5018686;28;20636;-64
2022/05/01 08:01:29;;;;;;;5.93;3.60;;;;;;;;;;5012063;28;20431;-65
2022/05/01 08:06:48;;;;;;;2.78;2.50;;;;;;;;;;4997361;28;20091;-63
2022/05/01 08:09:14;;;;;;;4.45;2.30;;;;;;;;;;5021848;28;20049;-66
2022/05/01 08:11:40;;;;;;;4.75;2.50;;;;;;;;;;5037181;28;20050;-66
2022/05/01 08:14:09;;;;;;;4.65;2.10;;;;;;;;;;5009875;28;20046;-67
2022/05/01 08:16:35;;;;;;;4.18;2.20;;;;;;;;;;4988758;28;20045;-67
2022/05/01 08:21:46;;;;;;;4.35;2.33;;;;;;;;;;5008739;28;20050;-66
2022/05/01 08:24:12;;;;;;;3.83;1.67;;;;;;;;;;5009248;28;20050;-67
2022/05/01 08:26:38;;;;;;;2.83;1.35;;;;;;;;;;5035802;28;20053;-67
2022/05/01 08:29:04;;;;;;;3.35;2.15;;;;;;;;;;5007933;28;20038;-66
2022/05/01 08:31:30;;;;;;;3.10;1.60;;;;;;;;;;5008638;28;20147;-66
2022/05/01 08:33:56;;;;;;;5.97;2.10;;;;;;;;;;4976016;28;20081;-67
2022/05/01 08:36:22;;;;;;;3.15;1.55;;;;;;;;;;5009309;28;21317;-67
2022/05/01 08:38:48;;;;;;;2.67;1.42;;;;;;;;;;5008049;28;20380;-66
2022/05/01 08:41:15;;;;;;;2.92;1.42;;;;;;;;;;5031557;28;20042;-67
2022/05/01 08:43:41;;;;;;;2.60;1.30;;;;;;;;;;5009065;28;20046;-67
2022/05/01 08:46:27;;;;;;;2.97;1.25;;;;;;;;;;5008604;28;20049;-67
2022/05/01 08:49:04;;;;;;;3.58;1.77;;;;;;;;;;4998604;28;20068;-66
2022/05/01 08:51:32;;;;;;;3.75;1.50;;;;;;;;;;5018026;28;20204;-67
2022/05/01 08:53:58;;;;;;;3.17;1.55;;;;;;;;;;5013464;28;20107;-66
2022/05/01 08:56:25;;;;;;;3.10;1.50;;;;;;;;;;5005876;28;20545;-67
2022/05/01 08:58:51;;;;;;;2.92;1.10;;;;;;;;;;5005865;28;20073;-66
2022/05/01 09:01:18;;;;;;;2.75;1.02;;;;;;;;;;5015334;28;20117;-66
2022/05/01 09:03:45;;;;;;;4.30;1.27;;;;;;;;;;4989907;28;20057;-66
2022/05/01 09:06:11;;;;;;;2.45;1.00;;;;;;;;;;5032888;28;20077;-68
2022/05/01 09:08:38;;;;;;;1.98;1.00;;;;;;;;;;4991464;28;20041;-66
2022/05/01 09:13:49;;;;;;;1.95;1.40;;;;;;;;;;5010345;28;20044;-66
2022/05/01 09:16:16;;;;;;;2.40;1.35;;;;;;;;;;5007523;28;20492;-67
2022/05/01 09:18:43;;;;;;;4.22;1.75;;;;;;;;;;5032583;28;20056;-66
2022/05/01 09:21:09;;;;;;;2.33;1.67;;;;;;;;;;5029505;28;20038;-66
2022/05/01 09:23:37;;;;;;;3.83;1.63;;;;;;;;;;5006096;28;20124;-67
2022/05/01 09:26:03;;;;;;;3.58;1.30;;;;;;;;;;5006897;28;20042;-66
2022/05/01 09:28:30;;;;;;;4.53;1.30;;;;;;;;;;5007567;28;20045;-67
2022/05/01 09:30:56;;;;;;;4.32;1.35;;;;;;;;;;5007729;28;20045;-67
2022/05/01 09:33:22;;;;;;;3.17;1.00;;;;;;;;;;5007437;28;20045;-67
2022/05/01 09:35:48;;;;;;;2.83;1.10;;;;;;;;;;5005903;28;20052;-66
2022/05/01 09:38:19;;;;;;;2.42;0.70;;;;;;;;;;5006434;28;20049;-68
2022/05/01 09:40:49;;;;;;;3.50;1.00;;;;;;;;;;5008502;28;20053;-67
2022/05/01 09:43:37;;;;;;;3.20;0.82;;;;;;;;;;5029748;28;20165;-67
2022/05/01 09:46:16;;;;;;;2.78;1.20;;;;;;;;;;5004361;28;20100;-67
2022/05/01 09:48:44;;;;;;;3.33;1.02;;;;;;;;;;5006061;28;20050;-65
2022/05/01 09:51:20;;;;;;;3.05;1.00;;;;;;;;;;5007031;28;20058;-65
2022/05/01 09:53:46;;;;;;;3.70;0.93;;;;;;;;;;5007431;28;20041;-65
2022/05/01 09:56:13;;;;;;;2.85;0.73;;;;;;;;;;5033932;28;20121;-65
2022/05/01 09:58:43;;;;;;;2.50;0.70;;;;;;;;;;5007873;28;20042;-66
2022/05/01 10:01:13;;;;;;;2.63;0.70;;;;;;;;;;5004490;28;20042;-65
2022/05/01 10:03:40;;;;;;;2.42;0.70;;;;;;;;;;5004678;28;20041;-65
2022/05/01 10:06:07;;;;;;;1.73;0.68;;;;;;;;;;5005212;28;20481;-66
2022/05/01 10:08:33;;;;;;;1.75;0.63;;;;;;;;;;5004319;28;20516;-65
2022/05/01 10:11:00;;;;;;;2.75;0.57;;;;;;;;;;5030115;28;20037;-64
2022/05/01 10:13:27;;;;;;;3.20;1.00;;;;;;;;;;5008476;28;20361;-63
2022/05/01 10:15:55;;;;;;;3.08;0.70;;;;;;;;;;5007002;28;20553;-63
2022/05/01 10:18:23;;;;;;;2.63;0.57;;;;;;;;;;5006995;28;20519;-64
2022/05/01 10:20:49;;;;;;;2.63;0.50;;;;;;;;;;5008473;28;20522;-64
2022/05/01 10:23:16;;;;;;;1.48;0.40;;;;;;;;;;5006364;28;20078;-64
2022/05/01 10:25:48;;;;;;;2.33;0.50;;;;;;;;;;5004548;28;20194;-63
2022/05/01 10:28:33;;;;;;;3.03;0.60;;;;;;;;;;5005985;28;20042;-64
2022/05/01 10:34:00;;;;;;;2.20;0.65;;;;;;;;;;5028200;28;20073;-64
2022/05/01 10:36:32;;;;;;;2.30;0.63;;;;;;;;;;5004759;28;20042;-65
2022/05/01 10:39:09;;;;;;;2.08;0.60;;;;;;;;;;5005054;28;20100;-64
2022/05/01 10:41:45;;;;;;;2.40;0.63;;;;;;;;;;5007311;28;20167;-64
2022/05/01 10:44:30;;;;;;;2.70;1.08;;;;;;;;;;5005534;28;20045;-64
2022/05/01 10:47:04;;;;;;;3.67;1.20;;;;;;;;;;5004802;28;20846;-64
2022/05/01 10:49:37;;;;;;;2.05;0.60;;;;;;;;;;5005453;28;20066;-63
2022/05/01 10:52:19;;;;;;;3.05;0.57;;;;;;;;;;5006315;28;20454;-64
2022/05/01 10:54:54;;;;;;;1.98;0.60;;;;;;;;;;4986756;28;20112;-64
2022/05/01 10:57:21;;;;;;;1.58;0.55;;;;;;;;;;5005304;28;20046;-64
2022/05/01 10:59:48;;;;;;;2.85;0.70;;;;;;;;;;5004573;28;20484;-65
2022/05/01 11:02:22;;;;;;;2.40;0.60;;;;;;;;;;5007678;28;20034;-64
2022/05/01 11:04:49;;;;;;;2.42;0.90;;;;;;;;;;5008377;28;20044;-64
2022/05/01 11:07:16;;;;;;;2.88;0.50;;;;;;;;;;5005602;28;20092;-65
2022/05/01 11:09:48;;;;;;;1.50;0.65;;;;;;;;;;5005598;28;20041;-64
2022/05/01 11:12:15;;;;;;;2.55;0.50;;;;;;;;;;4999176;28;20080;-65
2022/05/01 11:14:49;;;;;;;2.22;0.90;;;;;;;;;;5005991;28;20558;-65
2022/05/01 11:17:27;;;;;;;2.65;0.60;;;;;;;;;;5003204;28;20038;-64
2022/05/01 11:19:53;;;;;;;1.85;0.40;;;;;;;;;;5004737;28;20554;-67
2022/05/01 11:22:27;;;;;;;2.35;0.52;;;;;;;;;;5002663;28;20451;-67
2022/05/01 11:24:54;;;;;;;3.25;0.40;;;;;;;;;;5003849;28;20045;-67
2022/05/01 11:27:21;;;;;;;1.38;0.40;;;;;;;;;;5003760;28;20132;-66
2022/05/01 11:30:06;;;;;;;1.15;0.30;;;;;;;;;;5012850;28;20395;-66
2022/05/01 11:32:45;;;;;;;2.13;0.40;;;;;;;;;;5003855;28;20042;-67
2022/05/01 11:35:12;;;;;;;1.50;0.40;;;;;;;;;;5012572;28;20133;-66
2022/05/01 11:37:48;;;;;;;1.67;0.45;;;;;;;;;;5005970;28;20073;-67
2022/05/01 11:40:23;;;;;;;1.63;0.40;;;;;;;;;;5007745;28;20038;-66
2022/05/01 11:42:49;;;;;;;2.90;0.40;;;;;;;;;;5005688;28;20041;-66
2022/05/01 11:45:18;;;;;;;2.90;0.47;;;;;;;;;;5032552;28;20073;-65
2022/05/01 11:47:47;;;;;;;2.63;0.45;;;;;;;;;;5009114;28;20056;-65
2022/05/01 11:50:18;;;;;;;1.15;0.40;;;;;;;;;;5022525;28;20049;-65
2022/05/01 11:52:49;;;;;;;1.75;0.60;;;;;;;;;;5008140;28;20549;-66
2022/05/01 11:55:18;;;;;;;2.33;0.50;;;;;;;;;;5007785;28;20045;-65
2022/05/01 12:03:30;;;;;;;1.23;0.40;;;;;;;;;;5008409;28;20095;-66
2022/05/01 12:05:56;;;;;;;1.80;0.40;;;;;;;;;;5008404;28;20092;-67
2022/05/01 12:08:22;;;;;;;1.58;0.50;;;;;;;;;;5007305;28;20140;-66
2022/05/01 12:10:49;;;;;;;1.67;0.40;;;;;;;;;;5008483;28;20065;-68
2022/05/01 12:13:23;;;;;;;1.83;0.40;;;;;;;;;;5034900;28;20084;-65
2022/05/01 12:15:50;;;;;;;1.77;0.30;;;;;;;;;;5033889;28;20050;-66
2022/05/01 12:18:17;;;;;;;1.70;0.50;;;;;;;;;;5031976;28;20077;-65
2022/05/01 12:20:43;;;;;;;1.63;0.40;;;;;;;;;;5006876;28;20056;-63
2022/05/01 12:23:22;;;;;;;2.30;0.60;;;;;;;;;;5029262;28;20420;-64
2022/05/01 12:25:53;;;;;;;1.38;0.40;;;;;;;;;;4990684;28;20423;-66
2022/05/01 12:28:20;;;;;;;3.60;0.52;;;;;;;;;;5027649;28;20125;-65
2022/05/01 12:30:50;;;;;;;2.38;0.50;;;;;;;;;;4974512;28;20053;-65
2022/05/01 12:33:24;;;;;;;1.63;0.30;;;;;;;;;;5008296;28;20329;-66
2022/05/01 12:35:52;;;;;;;1.60;0.32;;;;;;;;;;5007951;28;20053;-65
2022/05/01 12:38:18;;;;;;;2.08;0.50;;;;;;;;;;5007423;28;20048;-64
2022/05/01 12:46:24;;;;;;;6.80;0.52;;;;;;;;;;5005903;28;20038;-65
2022/05/01 12:48:50;;;;;;;1.50;0.40;;;;;;;;;;5009478;28;20573;-65
2022/05/01 12:51:17;;;;;;;1.38;0.30;;;;;;;;;;5033069;28;20136;-65
2022/05/01 12:53:43;;;;;;;2.08;0.30;;;;;;;;;;5007780;28;20056;-65
2022/05/01 12:56:16;;;;;;;2.15;0.40;;;;;;;;;;5008658;28;20041;-64
2022/05/01 12:58:42;;;;;;;1.60;0.40;;;;;;;;;;5006824;28;20515;-64
2022/05/01 13:01:20;;;;;;;1.23;0.35;;;;;;;;;;5027305;28;20400;-64
2022/05/01 13:03:47;;;;;;;2.75;0.40;;;;;;;;;;4989814;28;20061;-64
2022/05/01 13:06:14;;;;;;;1.63;0.40;;;;;;;;;;5006728;28;20042;-66
2022/05/01 13:08:41;;;;;;;1.50;0.40;;;;;;;;;;5005917;28;20039;-65
2022/05/01 13:11:10;;;;;;;2.55;0.30;;;;;;;;;;5006654;28;20041;-64
2022/05/01 13:13:47;;;;;;;1.65;0.50;;;;;;;;;;5006437;28;20506;-65
2022/05/01 13:16:15;;;;;;;1.92;0.40;;;;;;;;;;5005447;28;20038;-65
2022/05/01 13:18:41;;;;;;;1.55;0.40;;;;;;;;;;4997244;28;20175;-66
2022/05/01 13:21:07;;;;;;;1.92;0.30;;;;;;;;;;5031655;28;20117;-65
2022/05/01 13:23:34;;;;;;;2.25;0.40;;;;;;;;;;5007593;28;20041;-65
2022/05/01 13:26:01;;;;;;;1.42;0.40;;;;;;;;;;5007984;28;20042;-64
2022/05/01 13:28:28;;;;;;;1.55;0.30;;;;;;;;;;4990517;28;20125;-64
2022/05/01 13:30:54;;;;;;;3.47;0.60;;;;;;;;;;4998942;28;20049;-66
2022/05/01 13:33:21;;;;;;;1.70;0.50;;;;;;;;;;5007673;28;20053;-67
2022/05/01 13:35:49;;;;;;;1.40;0.38;;;;;;;;;;5006445;28;20057;-66
2022/05/01 13:38:15;;;;;;;3.17;0.60;;;;;;;;;;5029455;28;20041;-65
2022/05/01 13:46:11;;;;;;;2.92;0.43;;;;;;;;;;5007372;28;20058;-65
2022/05/01 13:48:37;;;;;;;3.10;0.40;;;;;;;;;;5006296;28;20045;-65
2022/05/01 13:51:07;;;;;;;2.67;0.40;;;;;;;;;;5006356;28;20362;-65
2022/05/01 13:53:33;;;;;;;0.95;0.40;;;;;;;;;;5028535;28;20041;-61
2022/05/01 13:55:59;;;;;;;2.30;0.30;;;;;;;;;;5033242;28;20536;-62
2022/05/01 13:58:26;;;;;;;1.65;0.55;;;;;;;;;;5034204;28;20050;-63
2022/05/01 14:00:52;;;;;;;1.45;0.38;;;;;;;;;;4990137;28;20042;-63
2022/05/01 14:03:18;;;;;;;1.02;0.30;;;;;;;;;;5006944;28;20144;-63
2022/05/01 14:05:45;;;;;;;2.80;0.30;;;;;;;;;;5029091;28;20053;-63
2022/05/01 14:08:11;;;;;;;1.63;0.40;;;;;;;;;;5029877;28;20038;-63
2022/05/01 14:10:37;;;;;;;2.80;0.40;;;;;;;;;;4989397;28;20496;-64
2022/05/01 14:13:07;;;;;;;2.50;0.40;;;;;;;;;;4989536;28;20041;-64
2022/05/01 14:15:34;;;;;;;1.23;0.30;;;;;;;;;;5005715;28;20042;-64
2022/05/01 14:18:01;;;;;;;1.55;0.30;;;;;;;;;;5030006;28;20157;-65
2022/05/01 14:20:27;;;;;;;1.10;0.40;;;;;;;;;;5005419;28;20492;-64
2022/05/01 14:22:54;;;;;;;1.48;0.30;;;;;;;;;;5007738;28;20337;-63
2022/05/01 14:25:20;;;;;;;2.40;0.38;;;;;;;;;;5007384;28;20055;-65
2022/05/01 14:27:46;;;;;;;1.33;0.30;;;;;;;;;;5006474;28;20076;-66
2022/05/01 14:30:13;;;;;;;2.10;0.40;;;;;;;;;;4987902;28;20053;-66
2022/05/01 14:32:42;;;;;;;2.28;0.38;;;;;;;;;;5004476;28;20034;-67
2022/05/01 14:35:09;;;;;;;2.22;0.45;;;;;;;;;;5006351;28;20115;-66
2022/05/01 14:37:35;;;;;;;194.40;18.50;;;;;;;;;;5006077;28;20257;-66
2022/05/01 14:40:03;;;;;;;19.60;1.92;;;;;;;;;;5029473;28;20038;-66
2022/05/01 14:42:33;;;;;;;3.55;0.40;;;;;;;;;;5003516;28;20049;-64
2022/05/01 14:45:08;;;;;;;2.40;0.40;;;;;;;;;;4988505;28;20177;-66
2022/05/01 14:47:53;;;;;;;1.90;0.40;;;;;;;;;;5004061;28;20034;-65
2022/05/01 14:50:19;;;;;;;1.67;0.63;;;;;;;;;;5003772;28;20053;-65
2022/05/01 14:52:46;;;;;;;2.03;0.50;;;;;;;;;;5003825;28;20042;-65
2022/05/01 14:55:12;;;;;;;1.67;0.35;;;;;;;;;;5014162;28;20042;-66
2022/05/01 14:57:42;;;;;;;20.23;1.13;;;;;;;;;;5005206;28;20034;-66
2022/05/01 15:08:30;;;;;;;1.75;0.38;;;;;;;;;;5028099;28;20407;-66
2022/05/01 15:10:56;;;;;;;1.33;0.40;;;;;;;;;;5005111;28;20099;-66
2022/05/01 15:13:23;;;;;;;1.77;0.40;;;;;;;;;;5007282;28;20380;-68
2022/05/01 15:16:01;;;;;;;2.33;0.47;;;;;;;;;;5009053;28;20050;-65
2022/05/01 15:18:51;;;;;;;1.67;0.35;;;;;;;;;;5014739;28;20042;-67
2022/05/01 15:24:21;;;;;;;1.90;0.40;;;;;;;;;;5007539;28;20037;-66
2022/05/01 15:27:03;;;;;;;2.75;0.40;;;;;;;;;;4991500;28;20046;-66